createdAt,value
2023-01-12T00:02:21.221Z,17.00
2023-01-12T00:04:53.888Z,18.00
2023-01-12T00:07:26.034Z,15.80
2023-01-12T00:09:58.219Z,15.30
2023-01-12T00:12:32.617Z,15.10
2023-01-12T00:15:04.627Z,15.70
2023-01-12T00:17:36.759Z,15.60
2023-01-12T00:20:10.860Z,15.30
2023-01-12T00:22:43.468Z,14.20
2023-01-12T00:25:15.422Z,12.20
2023-01-12T00:27:51.031Z,14.00
2023-01-12T00:30:23.461Z,12.20
2023-01-12T00:32:55.596Z,12.80
2023-01-12T00:35:27.576Z,11.70
2023-01-12T00:38:01.069Z,11.60
2023-01-12T00:40:33.019Z,11.70
2023-01-12T00:43:22.855Z,12.80
2023-01-12T00:45:54.826Z,11.30
2023-01-12T00:48:27.038Z,11.30
2023-01-12T00:50:59.326Z,11.40
2023-01-12T00:53:31.878Z,12.30
2023-01-12T00:56:06.592Z,12.80
2023-01-12T00:58:38.548Z,12.60
2023-01-12T01:01:11.447Z,13.40
2023-01-12T01:03:43.819Z,11.90
2023-01-12T01:06:15.901Z,13.50
2023-01-12T01:08:48.470Z,13.20
2023-01-12T01:11:21.115Z,13.10
2023-01-12T01:13:55.596Z,13.50
2023-01-12T01:16:27.738Z,12.50
2023-01-12T01:19:00.388Z,12.20
2023-01-12T01:21:32.908Z,12.60
2023-01-12T01:24:05.378Z,12.80
2023-01-12T01:26:37.737Z,12.70
2023-01-12T01:29:10.107Z,13.90
2023-01-12T01:31:42.228Z,13.00
2023-01-12T01:34:18.755Z,13.80
2023-01-12T01:37:04.138Z,14.00
2023-01-12T01:39:36.341Z,14.10
2023-01-12T01:42:28.588Z,14.80
2023-01-12T01:45:03.387Z,13.90
2023-01-12T01:47:41.455Z,15.60
2023-01-12T01:50:21.612Z,14.00
2023-01-12T01:52:58.977Z,14.60
2023-01-12T01:55:35.170Z,13.50
2023-01-12T01:58:13.286Z,14.20
2023-01-12T02:00:48.327Z,14.20
2023-01-12T02:03:21.438Z,14.20
2023-01-12T02:05:55.347Z,15.50
2023-01-12T02:08:32.257Z,15.20
2023-01-12T02:11:25.356Z,13.70
2023-01-12T02:14:14.839Z,14.30
2023-01-12T02:16:59.807Z,14.80
2023-01-12T02:19:57.227Z,15.00
2023-01-12T02:22:54.698Z,13.30
2023-01-12T02:25:59.186Z,13.40
2023-01-12T02:28:57.954Z,12.50
2023-01-12T02:31:49.657Z,13.20
2023-01-12T02:34:34.239Z,13.20
2023-01-12T02:37:15.880Z,12.60
2023-01-12T02:39:59.999Z,12.90
2023-01-12T02:45:43.174Z,12.10
2023-01-12T02:48:22.677Z,10.50
2023-01-12T02:51:01.324Z,9.80
2023-01-12T02:53:38.818Z,9.90
2023-01-12T02:56:12.145Z,8.80
2023-01-12T02:58:49.625Z,9.50
2023-01-12T03:01:23.991Z,9.70
2023-01-12T03:04:01.191Z,10.10
2023-01-12T03:06:45.802Z,10.40
2023-01-12T03:09:20.510Z,9.40
2023-01-12T03:12:02.137Z,9.00
2023-01-12T03:14:37.975Z,10.10
2023-01-12T03:17:13.998Z,9.50
2023-01-12T03:19:47.399Z,9.60
2023-01-12T03:22:20.411Z,9.40
2023-01-12T03:24:56.633Z,10.30
2023-01-12T03:27:33.821Z,10.00
2023-01-12T03:30:13.477Z,10.40
2023-01-12T03:32:45.880Z,10.00
2023-01-12T03:35:21.292Z,9.90
2023-01-12T03:37:59.608Z,9.40
2023-01-12T03:40:39.149Z,9.50
2023-01-12T03:43:18.668Z,9.00
2023-01-12T03:45:55.906Z,9.50
2023-01-12T03:48:32.976Z,8.90
2023-01-12T03:51:12.149Z,9.40
2023-01-12T03:53:46.967Z,8.90
2023-01-12T03:56:21.817Z,9.50
2023-01-12T03:58:54.787Z,9.80
2023-01-12T04:01:27.309Z,9.00
2023-01-12T04:04:00.184Z,8.70
2023-01-12T04:06:32.757Z,9.20
2023-01-12T04:09:04.770Z,8.00
2023-01-12T04:11:54.187Z,8.30
2023-01-12T04:14:26.251Z,8.10
2023-01-12T04:16:58.287Z,7.50
2023-01-12T04:19:30.948Z,7.60
2023-01-12T04:22:20.716Z,8.60
2023-01-12T04:24:54.781Z,7.90
2023-01-12T04:27:26.838Z,7.40
2023-01-12T04:29:59.681Z,9.00
2023-01-12T04:32:31.880Z,8.10
2023-01-12T04:35:04.689Z,8.10
2023-01-12T04:37:36.966Z,8.00
2023-01-12T04:40:12.391Z,7.60
2023-01-12T04:43:07.484Z,6.80
2023-01-12T04:45:44.096Z,7.90
2023-01-12T04:48:17.122Z,7.20
2023-01-12T04:50:50.737Z,8.10
2023-01-12T04:53:24.843Z,6.80
2023-01-12T04:55:57.992Z,6.80
2023-01-12T04:58:29.967Z,6.90
2023-01-12T05:01:08.998Z,6.50
2023-01-12T05:03:41.856Z,6.80
2023-01-12T05:06:13.886Z,7.40
2023-01-12T05:09:03.470Z,6.40
2023-01-12T05:11:35.751Z,6.70
2023-01-12T05:14:08.238Z,7.20
2023-01-12T05:16:40.535Z,7.00
2023-01-12T05:19:13.464Z,7.20
2023-01-12T05:21:45.653Z,6.90
2023-01-12T05:24:37.882Z,7.60
2023-01-12T05:27:10.089Z,7.90
2023-01-12T05:29:42.320Z,7.40
2023-01-12T05:32:14.731Z,7.60
2023-01-12T05:34:46.741Z,7.90
2023-01-12T05:37:19.113Z,7.80
2023-01-12T05:39:51.637Z,7.70
2023-01-12T05:42:41.023Z,7.60
2023-01-12T05:45:14.727Z,7.20
2023-01-12T05:47:47.016Z,7.40
2023-01-12T05:50:19.599Z,6.60
2023-01-12T05:53:12.149Z,7.10
2023-01-12T05:55:44.764Z,7.30
2023-01-12T05:58:16.988Z,8.30
2023-01-12T06:00:49.977Z,7.90
2023-01-12T06:03:22.343Z,8.00
2023-01-12T06:05:58.732Z,8.10
2023-01-12T06:08:30.932Z,7.60
2023-01-12T06:11:06.926Z,8.00
2023-01-12T06:13:56.430Z,8.00
2023-01-12T06:16:30.024Z,8.40
2023-01-12T06:21:35.373Z,8.10
2023-01-12T06:24:08.197Z,8.40
2023-01-12T06:26:40.281Z,10.90
2023-01-12T06:29:13.948Z,9.70
2023-01-12T06:34:16.539Z,9.00
2023-01-12T06:36:49.928Z,9.20
2023-01-12T06:39:22.447Z,9.70
2023-01-12T06:42:14.382Z,10.10
2023-01-12T06:44:48.704Z,10.00
2023-01-12T06:47:21.617Z,9.60
2023-01-12T06:49:53.647Z,10.60
2023-01-12T06:52:27.785Z,11.00
2023-01-12T06:55:00.019Z,11.40
2023-01-12T06:57:32.229Z,10.90
2023-01-12T07:00:05.333Z,11.60
2023-01-12T07:02:37.708Z,11.50
2023-01-12T07:05:10.656Z,11.40
2023-01-12T07:07:45.432Z,12.30
2023-01-12T07:10:18.195Z,12.00
2023-01-12T07:12:50.496Z,12.60
2023-01-12T07:15:22.829Z,13.20
2023-01-12T07:18:00.164Z,12.10
2023-01-12T07:20:32.688Z,12.60
2023-01-12T07:23:04.617Z,12.70
2023-01-12T07:25:36.972Z,14.10
2023-01-12T07:28:10.379Z,12.60
2023-01-12T07:30:42.691Z,13.60
2023-01-12T07:33:18.527Z,13.80
2023-01-12T07:35:50.860Z,13.70
2023-01-12T07:38:22.869Z,13.00
2023-01-12T07:40:55.104Z,13.70
2023-01-12T07:43:27.389Z,12.60
2023-01-12T07:46:01.294Z,11.70
2023-01-12T07:48:33.545Z,11.70
2023-01-12T07:51:05.924Z,11.50
2023-01-12T07:53:38.110Z,10.20
2023-01-12T07:56:13.799Z,11.40
2023-01-12T07:58:48.353Z,10.90
2023-01-12T08:01:20.876Z,11.40
2023-01-12T08:03:53.143Z,11.40
2023-01-12T08:06:25.076Z,13.60
2023-01-12T08:08:57.709Z,14.00
2023-01-12T08:11:29.754Z,13.50
2023-01-12T08:14:02.329Z,12.40
2023-01-12T08:16:39.348Z,12.70
2023-01-12T08:19:15.787Z,13.30
2023-01-12T08:21:51.529Z,14.90
2023-01-12T08:24:29.951Z,15.60
2023-01-12T08:27:06.577Z,16.70
2023-01-12T08:29:44.477Z,15.90
2023-01-12T08:32:19.071Z,15.60
2023-01-12T08:34:55.229Z,13.40
2023-01-12T08:37:29.486Z,14.60
2023-01-12T08:40:01.945Z,13.60
2023-01-12T08:42:34.310Z,14.30
2023-01-12T08:45:08.151Z,13.00
2023-01-12T08:47:42.668Z,12.50
2023-01-12T08:50:14.927Z,12.50
2023-01-12T08:52:49.066Z,10.80
2023-01-12T08:55:21.217Z,11.20
2023-01-12T08:57:53.437Z,10.90
2023-01-12T09:00:26.047Z,10.50
2023-01-12T09:02:58.308Z,10.90
2023-01-12T09:05:30.401Z,10.30
2023-01-12T09:08:02.698Z,10.30
2023-01-12T09:10:34.941Z,9.50
2023-01-12T09:13:07.328Z,8.90
2023-01-12T09:15:39.730Z,8.40
2023-01-12T09:18:11.817Z,9.20
2023-01-12T09:20:44.327Z,8.70
2023-01-12T09:23:16.573Z,8.80
2023-01-12T09:25:48.807Z,8.80
2023-01-12T09:28:20.879Z,9.20
2023-01-12T09:30:54.685Z,9.10
2023-01-12T09:36:00.909Z,10.30
2023-01-12T09:38:33.392Z,10.30
2023-01-12T09:41:13.237Z,9.90
2023-01-12T09:44:03.578Z,10.20
2023-01-12T09:46:57.021Z,10.20
2023-01-12T09:49:33.517Z,11.20
2023-01-12T09:52:13.793Z,9.90
2023-01-12T09:54:48.644Z,9.70
2023-01-12T09:57:49.842Z,10.00
2023-01-12T10:00:23.035Z,9.30
2023-01-12T10:03:08.078Z,9.30
2023-01-12T10:05:45.030Z,8.80
2023-01-12T10:08:27.769Z,9.70
2023-01-12T10:11:12.275Z,9.80
2023-01-12T10:14:13.161Z,9.10
2023-01-12T10:16:55.590Z,9.80
2023-01-12T10:19:34.256Z,8.90
2023-01-12T10:22:37.615Z,8.30
2023-01-12T10:25:19.997Z,12.80
2023-01-12T10:27:53.807Z,11.70
2023-01-12T10:30:30.694Z,11.30
2023-01-12T10:33:11.947Z,10.80
2023-01-12T10:35:54.753Z,10.50
2023-01-12T10:38:31.650Z,11.20
2023-01-12T10:41:14.260Z,10.70
2023-01-12T10:43:48.608Z,11.70
2023-01-12T10:46:24.233Z,12.20
2023-01-12T10:49:16.178Z,11.70
2023-01-12T10:51:56.483Z,10.70
2023-01-12T10:54:31.830Z,10.70
2023-01-12T10:57:07.974Z,10.10
2023-01-12T10:59:43.088Z,9.70
2023-01-12T11:02:18.091Z,10.10
2023-01-12T11:04:53.099Z,9.40
2023-01-12T11:07:29.214Z,9.10
2023-01-12T11:10:22.429Z,8.60
2023-01-12T11:12:59.685Z,8.10
2023-01-12T11:15:39.394Z,8.10
2023-01-12T11:18:36.908Z,8.30
2023-01-12T11:21:14.357Z,8.00
2023-01-12T11:23:56.691Z,8.40
2023-01-12T11:26:34.239Z,7.20
2023-01-12T11:29:24.775Z,7.50
2023-01-12T11:32:01.379Z,7.20
2023-01-12T11:34:37.860Z,8.40
2023-01-12T11:37:15.485Z,7.40
2023-01-12T11:39:49.537Z,7.70
2023-01-12T11:42:44.050Z,7.50
2023-01-12T11:45:23.252Z,6.90
2023-01-12T11:48:01.617Z,8.20
2023-01-12T11:50:39.846Z,7.50
2023-01-12T11:53:21.002Z,8.20
2023-01-12T11:56:21.199Z,8.30
2023-01-12T11:58:59.358Z,9.30
2023-01-12T12:01:39.860Z,7.90
2023-01-12T12:04:23.778Z,8.10
2023-01-12T12:07:21.006Z,8.70
2023-01-12T12:10:07.437Z,8.70
2023-01-12T12:12:48.046Z,8.00
2023-01-12T12:15:29.728Z,8.60
2023-01-12T12:18:13.546Z,8.00
2023-01-12T12:23:32.612Z,5.50
2023-01-12T12:26:14.022Z,4.90
2023-01-12T12:29:05.367Z,5.10
2023-01-12T12:31:48.167Z,4.30
2023-01-12T12:34:44.480Z,4.00
2023-01-12T12:37:27.438Z,3.20
2023-01-12T12:40:03.811Z,2.90
2023-01-12T12:43:03.806Z,3.10
2023-01-12T12:45:45.339Z,2.90
2023-01-12T12:48:25.260Z,2.60
2023-01-12T12:51:08.077Z,2.90
2023-01-12T12:53:43.693Z,2.80
2023-01-12T12:56:18.112Z,2.20
2023-01-12T12:58:51.688Z,2.80
2023-01-12T13:01:58.698Z,2.90
2023-01-12T13:05:05.474Z,2.20
2023-01-12T13:07:53.336Z,3.30
2023-01-12T13:10:35.594Z,2.70
2023-01-12T13:13:34.420Z,2.70
2023-01-12T13:16:45.983Z,2.60
2023-01-12T13:19:39.034Z,3.80
2023-01-12T13:22:32.633Z,2.40
2023-01-12T13:25:29.851Z,2.60
2023-01-12T13:28:21.809Z,3.10
2023-01-12T13:30:55.834Z,3.40
2023-01-12T13:33:31.682Z,2.70
2023-01-12T13:36:08.688Z,2.90
2023-01-12T13:38:54.548Z,2.60
2023-01-12T13:41:47.325Z,2.90
2023-01-12T13:44:27.824Z,2.40
2023-01-12T13:47:08.967Z,2.40
2023-01-12T13:49:48.769Z,2.80
2023-01-12T13:52:40.809Z,3.20
2023-01-12T13:55:25.250Z,2.60
2023-01-12T13:58:02.609Z,2.70
2023-01-12T14:00:35.448Z,2.50
2023-01-12T14:03:12.635Z,2.70
2023-01-12T14:05:59.085Z,3.30
2023-01-12T14:09:01.359Z,2.60
2023-01-12T14:12:05.504Z,3.00
2023-01-12T14:15:22.827Z,2.60
2023-01-12T14:18:03.234Z,2.50
2023-01-12T14:20:44.579Z,2.50
2023-01-12T14:23:20.694Z,3.80
2023-01-12T14:26:14.870Z,3.10
2023-01-12T14:28:48.369Z,3.10
2023-01-12T14:31:25.491Z,3.60
2023-01-12T14:34:00.448Z,3.70
2023-01-12T14:36:36.232Z,2.60
2023-01-12T14:39:17.458Z,2.80
2023-01-12T14:42:09.810Z,2.70
2023-01-12T14:45:07.407Z,3.00
2023-01-12T14:47:40.065Z,3.40
2023-01-12T14:50:23.799Z,3.10
2023-01-12T14:52:56.037Z,3.20
2023-01-12T14:55:41.509Z,3.70
2023-01-12T14:58:24.235Z,3.90
2023-01-12T15:00:56.537Z,3.00
2023-01-12T15:03:39.366Z,2.80
2023-01-12T15:06:19.042Z,3.20
2023-01-12T15:09:00.644Z,3.70
2023-01-12T15:11:39.819Z,3.10
2023-01-12T15:14:26.574Z,3.50
2023-01-12T15:17:16.050Z,4.10
2023-01-12T15:20:05.827Z,3.80
2023-01-12T15:22:56.495Z,4.10
2023-01-12T15:25:37.837Z,4.30
2023-01-12T15:28:10.779Z,4.50
2023-01-12T15:30:43.209Z,4.80
2023-01-12T15:33:16.880Z,3.60
2023-01-12T15:38:21.050Z,3.90
2023-01-12T15:40:53.149Z,12.00
2023-01-12T15:43:25.697Z,4.70
2023-01-12T15:45:58.198Z,4.30
2023-01-12T15:48:30.529Z,4.60
2023-01-12T15:51:02.824Z,4.60
2023-01-12T15:53:34.888Z,5.10
2023-01-12T15:56:09.779Z,5.90
2023-01-12T15:58:41.917Z,5.10
2023-01-12T16:01:19.484Z,5.20
2023-01-12T16:04:24.911Z,5.00
2023-01-12T16:06:44.323Z,5.90
2023-01-12T16:09:17.842Z,5.80
2023-01-12T16:11:50.085Z,4.90
2023-01-12T16:14:22.110Z,5.80
2023-01-12T16:16:54.398Z,6.10
2023-01-12T16:19:27.850Z,5.20
2023-01-12T16:21:59.923Z,5.20
2023-01-12T16:24:33.038Z,5.20
2023-01-12T16:29:35.849Z,5.40
2023-01-12T16:32:08.975Z,4.80
2023-01-12T16:34:41.486Z,4.40
2023-01-12T16:37:16.356Z,4.50
2023-01-12T16:39:48.773Z,6.90
2023-01-12T16:42:21.445Z,5.20
2023-01-12T16:44:53.577Z,4.40
2023-01-12T16:47:27.888Z,4.50
2023-01-12T16:50:00.452Z,5.60
2023-01-12T16:52:32.766Z,7.00
2023-01-12T16:55:06.060Z,30.20
2023-01-12T16:57:39.357Z,11.90
2023-01-12T17:00:13.891Z,6.60
2023-01-12T17:02:48.156Z,5.40
2023-01-12T17:05:23.246Z,4.50
2023-01-12T17:07:55.956Z,6.30
2023-01-12T17:10:28.409Z,4.60
2023-01-12T17:13:00.822Z,4.80
2023-01-12T17:18:05.706Z,4.50
2023-01-12T17:20:38.055Z,4.50
2023-01-12T17:23:10.589Z,5.00
2023-01-12T17:25:42.810Z,4.80
2023-01-12T17:28:15.006Z,4.90
2023-01-12T17:30:47.383Z,5.20
2023-01-12T17:33:20.758Z,5.40
2023-01-12T17:35:55.696Z,5.60
2023-01-12T17:38:27.838Z,5.90
2023-01-12T17:40:59.904Z,5.90
2023-01-12T17:43:32.130Z,5.90
2023-01-12T17:46:04.755Z,5.50
2023-01-12T17:48:37.314Z,6.10
2023-01-12T17:51:14.233Z,5.90
2023-01-12T17:53:46.576Z,6.40
2023-01-12T17:56:20.089Z,7.20
2023-01-12T17:58:55.525Z,7.00
2023-01-12T18:01:29.907Z,6.90
2023-01-12T18:04:03.496Z,6.80
2023-01-12T18:06:36.435Z,7.30
2023-01-12T18:09:09.853Z,7.50
2023-01-12T18:11:44.129Z,7.70
2023-01-12T18:14:21.165Z,7.30
2023-01-12T18:16:53.544Z,7.80
2023-01-12T18:19:25.947Z,7.80
2023-01-12T18:21:58.201Z,7.10
2023-01-12T18:24:34.321Z,6.50
2023-01-12T18:27:08.497Z,6.80
2023-01-12T18:29:41.516Z,6.90
2023-01-12T18:32:14.137Z,7.00
2023-01-12T18:34:47.356Z,6.70
2023-01-12T18:39:52.258Z,7.10
2023-01-12T18:42:42.191Z,6.50
2023-01-12T18:45:17.949Z,7.00
2023-01-12T18:48:09.019Z,7.40
2023-01-12T18:50:59.545Z,7.80
2023-01-12T18:53:33.146Z,7.10
2023-01-12T18:56:09.259Z,7.80
2023-01-12T18:58:43.864Z,7.80
2023-01-12T19:01:22.422Z,8.00
2023-01-12T19:03:56.103Z,7.90
2023-01-12T19:06:43.650Z,7.90
2023-01-12T19:09:34.088Z,8.00
2023-01-12T19:12:11.188Z,8.90
2023-01-12T19:15:02.620Z,7.50
2023-01-12T19:17:37.096Z,8.50
2023-01-12T19:20:17.629Z,8.80
2023-01-12T19:23:07.095Z,8.90
2023-01-12T19:26:10.317Z,8.90
2023-01-12T19:28:43.230Z,10.30
2023-01-12T19:31:17.763Z,8.50
2023-01-12T19:33:50.522Z,9.50
2023-01-12T19:36:22.957Z,9.70
2023-01-12T19:38:58.892Z,9.30
2023-01-12T19:41:48.888Z,9.40
2023-01-12T19:44:21.140Z,8.60
2023-01-12T19:46:53.357Z,8.90
2023-01-12T19:49:27.612Z,9.00
2023-01-12T19:51:59.912Z,8.40
2023-01-12T19:54:32.329Z,9.10
2023-01-12T19:57:05.217Z,8.60
2023-01-12T19:59:37.899Z,9.00
2023-01-12T20:02:11.074Z,7.90
2023-01-12T20:04:43.691Z,8.30
2023-01-12T20:07:21.898Z,8.40
2023-01-12T20:10:00.114Z,8.30
2023-01-12T20:12:32.552Z,7.70
2023-01-12T20:15:18.454Z,8.20
2023-01-12T20:17:54.857Z,9.30
2023-01-12T20:20:39.983Z,9.90
2023-01-12T20:23:19.887Z,9.00
2023-01-12T20:26:02.527Z,10.20
2023-01-12T20:28:42.115Z,9.50
2023-01-12T20:31:21.101Z,8.60
2023-01-12T20:33:54.540Z,9.40
2023-01-12T20:36:30.008Z,8.90
2023-01-12T20:39:07.148Z,10.40
2023-01-12T20:41:47.158Z,8.70
2023-01-12T20:44:24.956Z,9.00
2023-01-12T20:47:04.221Z,10.60
2023-01-12T20:49:43.435Z,9.80
2023-01-12T20:52:18.613Z,10.50
2023-01-12T20:54:54.943Z,10.70
2023-01-12T20:57:31.033Z,12.10
2023-01-12T21:00:06.615Z,10.90
2023-01-12T21:02:42.872Z,11.00
2023-01-12T21:05:19.639Z,11.00
2023-01-12T21:08:07.452Z,12.00
2023-01-12T21:10:50.436Z,11.30
2023-01-12T21:13:25.250Z,10.80
2023-01-12T21:16:06.308Z,12.50
2023-01-12T21:18:43.447Z,10.80
2023-01-12T21:21:18.967Z,10.90
2023-01-12T21:23:54.532Z,11.50
2023-01-12T21:26:31.690Z,11.00
2023-01-12T21:29:03.935Z,11.20
2023-01-12T21:31:36.449Z,11.10
2023-01-12T21:34:08.894Z,11.40
2023-01-12T21:36:41.271Z,11.20
2023-01-12T21:39:13.771Z,11.50
2023-01-12T21:42:03.040Z,11.40
2023-01-12T21:44:35.842Z,11.80
2023-01-12T21:47:08.068Z,11.00
2023-01-12T21:49:40.209Z,12.00
2023-01-12T21:52:12.429Z,13.80
2023-01-12T21:54:45.037Z,12.20
2023-01-12T21:57:19.026Z,12.60
2023-01-12T21:59:51.443Z,12.70
2023-01-12T22:02:24.049Z,13.40
2023-01-12T22:04:56.617Z,13.00
2023-01-12T22:07:30.858Z,11.50
2023-01-12T22:10:16.798Z,13.00
2023-01-12T22:12:54.429Z,12.50
2023-01-12T22:15:28.224Z,11.90
2023-01-12T22:20:31.037Z,10.90
2023-01-12T22:23:03.234Z,9.90
2023-01-12T22:25:38.258Z,10.40
2023-01-12T22:28:11.878Z,9.80
2023-01-12T22:30:45.167Z,10.20
2023-01-12T22:33:17.696Z,9.80
2023-01-12T22:35:50.096Z,10.50
2023-01-12T22:38:22.037Z,9.30
2023-01-12T22:40:54.279Z,9.80
2023-01-12T22:43:29.747Z,9.60
2023-01-12T22:46:02.306Z,9.60
2023-01-12T22:48:34.439Z,9.60
2023-01-12T22:51:07.235Z,10.40
2023-01-12T22:53:39.399Z,8.30
2023-01-12T22:56:13.545Z,9.90
2023-01-12T22:58:49.760Z,10.30
2023-01-12T23:01:23.172Z,9.70
2023-01-12T23:04:00.351Z,11.20
2023-01-12T23:06:33.240Z,10.50
2023-01-12T23:09:09.266Z,11.10
2023-01-12T23:11:48.051Z,10.10
2023-01-12T23:14:23.997Z,9.10
2023-01-12T23:16:59.155Z,9.20
2023-01-12T23:19:35.727Z,9.30
2023-01-12T23:22:11.570Z,9.60
2023-01-12T23:24:47.910Z,9.00
2023-01-12T23:27:22.974Z,9.40
2023-01-12T23:29:55.816Z,8.20
2023-01-12T23:32:30.709Z,7.40
2023-01-12T23:35:02.760Z,7.70
2023-01-12T23:37:34.867Z,7.70
2023-01-12T23:40:08.346Z,8.30
2023-01-12T23:42:41.026Z,7.90
2023-01-12T23:45:15.859Z,7.60
2023-01-12T23:47:48.435Z,7.90
2023-01-12T23:50:21.328Z,7.60
2023-01-12T23:52:53.985Z,7.40
2023-01-12T23:55:27.513Z,7.60
2023-01-12T23:57:59.767Z,7.70
